createdAt,value
2022-07-25T00:01:47.154Z,62.68
2022-07-25T00:04:14.766Z,63.02
2022-07-25T00:06:42.311Z,63.31
2022-07-25T00:09:09.650Z,63.32
2022-07-25T00:11:36.966Z,63.67
2022-07-25T00:14:04.775Z,63.69
2022-07-25T00:16:32.116Z,63.62
2022-07-25T00:18:58.916Z,63.61
2022-07-25T00:21:25.548Z,63.73
2022-07-25T00:23:52.149Z,63.76
2022-07-25T00:26:18.809Z,63.85
2022-07-25T00:28:45.344Z,64.11
2022-07-25T00:31:11.957Z,64.07
2022-07-25T00:33:40.099Z,64.18
2022-07-25T00:36:08.656Z,64.37
2022-07-25T00:38:35.354Z,64.30
2022-07-25T00:41:04.271Z,64.11
2022-07-25T00:43:31.261Z,63.88
2022-07-25T00:45:59.359Z,63.71
2022-07-25T00:48:28.379Z,64.05
2022-07-25T00:50:59.663Z,63.97
2022-07-25T00:53:26.314Z,64.01
2022-07-25T00:55:53.203Z,64.19
2022-07-25T00:58:19.840Z,64.48
2022-07-25T01:00:47.776Z,64.72
2022-07-25T01:03:15.623Z,64.56
2022-07-25T01:05:42.431Z,64.98
2022-07-25T01:08:10.262Z,65.25
2022-07-25T01:10:37.987Z,65.11
2022-07-25T01:13:05.734Z,65.04
2022-07-25T01:15:32.445Z,65.02
2022-07-25T01:17:59.001Z,64.90
2022-07-25T01:20:29.225Z,65.09
2022-07-25T01:22:56.495Z,65.19
2022-07-25T01:25:24.356Z,65.30
2022-07-25T01:27:55.790Z,65.44
2022-07-25T01:30:24.574Z,65.55
2022-07-25T01:32:51.915Z,65.79
2022-07-25T01:35:18.571Z,65.90
2022-07-25T01:37:45.863Z,65.88
2022-07-25T01:40:14.437Z,65.81
2022-07-25T01:42:42.974Z,65.90
2022-07-25T01:45:12.235Z,66.11
2022-07-25T01:47:38.996Z,65.87
2022-07-25T01:50:06.848Z,65.76
2022-07-25T01:52:33.467Z,66.09
2022-07-25T01:54:59.980Z,66.47
2022-07-25T01:57:31.131Z,66.43
2022-07-25T01:59:59.280Z,66.31
2022-07-25T02:02:25.984Z,66.49
2022-07-25T02:04:52.672Z,66.69
2022-07-25T02:07:19.566Z,66.73
2022-07-25T02:09:46.165Z,66.39
2022-07-25T02:12:12.800Z,66.58
2022-07-25T02:14:39.443Z,66.30
2022-07-25T02:17:06.182Z,66.54
2022-07-25T02:19:33.232Z,66.78
2022-07-25T02:22:00.637Z,67.16
2022-07-25T02:24:27.277Z,67.32
2022-07-25T02:26:53.924Z,67.43
2022-07-25T02:29:21.996Z,67.52
2022-07-25T02:31:49.001Z,67.36
2022-07-25T02:34:15.703Z,67.18
2022-07-25T02:36:42.765Z,67.29
2022-07-25T02:39:09.402Z,67.69
2022-07-25T02:41:36.045Z,67.19
2022-07-25T02:44:02.731Z,67.71
2022-07-25T02:46:29.468Z,67.56
2022-07-25T02:48:56.168Z,67.97
2022-07-25T02:51:22.730Z,67.83
2022-07-25T02:53:57.880Z,67.65
2022-07-25T02:56:35.569Z,67.91
2022-07-25T02:59:02.081Z,67.82
2022-07-25T03:01:28.979Z,68.05
2022-07-25T03:03:55.950Z,68.16
2022-07-25T03:06:22.579Z,67.99
2022-07-25T03:08:49.130Z,67.98
2022-07-25T03:11:16.709Z,67.61
2022-07-25T03:13:43.582Z,68.14
2022-07-25T03:16:10.452Z,68.39
2022-07-25T03:18:37.332Z,68.20
2022-07-25T03:21:04.317Z,68.03
2022-07-25T03:23:31.069Z,68.00
2022-07-25T03:25:57.856Z,68.05
2022-07-25T03:28:25.115Z,67.87
2022-07-25T03:30:52.821Z,68.39
2022-07-25T03:33:19.618Z,68.71
2022-07-25T03:35:46.426Z,68.48
2022-07-25T03:38:13.085Z,68.37
2022-07-25T03:40:39.658Z,68.33
2022-07-25T03:43:06.323Z,68.67
2022-07-25T03:45:32.906Z,68.55
2022-07-25T03:47:59.473Z,68.60
2022-07-25T03:50:25.998Z,68.58
2022-07-25T03:52:52.511Z,68.43
2022-07-25T03:55:19.048Z,67.92
2022-07-25T03:57:45.590Z,68.00
2022-07-25T04:00:12.580Z,68.34
2022-07-25T04:02:39.444Z,68.40
2022-07-25T04:05:08.911Z,68.38
2022-07-25T04:07:37.233Z,68.53
2022-07-25T04:10:07.029Z,68.40
2022-07-25T04:12:33.896Z,68.48
2022-07-25T04:15:00.465Z,68.56
2022-07-25T04:17:27.018Z,69.12
2022-07-25T04:19:53.628Z,69.09
2022-07-25T04:22:20.284Z,69.23
2022-07-25T04:24:46.967Z,69.29
2022-07-25T04:27:13.824Z,69.17
2022-07-25T04:29:40.341Z,69.23
2022-07-25T04:32:07.270Z,69.04
2022-07-25T04:34:33.893Z,68.60
2022-07-25T04:37:00.422Z,68.65
2022-07-25T04:39:26.932Z,68.89
2022-07-25T04:41:53.471Z,68.93
2022-07-25T04:44:20.022Z,68.82
2022-07-25T04:46:46.534Z,69.19
2022-07-25T04:49:13.208Z,69.30
2022-07-25T04:51:39.712Z,69.26
2022-07-25T04:54:06.837Z,69.31
2022-07-25T04:56:33.633Z,69.56
2022-07-25T04:59:06.595Z,69.45
2022-07-25T05:01:33.901Z,69.43
2022-07-25T05:04:00.605Z,69.55
2022-07-25T05:06:27.164Z,68.73
2022-07-25T05:08:53.713Z,68.86
2022-07-25T05:11:20.299Z,68.55
2022-07-25T05:13:46.826Z,68.34
2022-07-25T05:16:13.447Z,68.26
2022-07-25T05:18:40.123Z,68.37
2022-07-25T05:21:11.368Z,68.00
2022-07-25T05:23:38.004Z,67.90
2022-07-25T05:26:04.635Z,67.71
2022-07-25T05:28:31.140Z,67.55
2022-07-25T05:30:57.682Z,67.08
2022-07-25T05:33:24.216Z,67.12
2022-07-25T05:35:50.736Z,67.10
2022-07-25T05:38:17.352Z,66.90
2022-07-25T05:40:45.749Z,66.88
2022-07-25T05:43:12.288Z,66.67
2022-07-25T05:45:38.789Z,66.63
2022-07-25T05:48:05.484Z,66.53
2022-07-25T05:50:32.115Z,66.40
2022-07-25T05:52:58.656Z,66.23
2022-07-25T05:55:25.217Z,66.18
2022-07-25T05:57:51.726Z,66.04
2022-07-25T06:00:18.349Z,65.89
2022-07-25T06:02:45.157Z,65.67
2022-07-25T06:05:11.741Z,65.88
2022-07-25T06:07:38.294Z,65.53
2022-07-25T06:10:05.648Z,65.03
2022-07-25T06:12:33.566Z,64.88
2022-07-25T06:15:04.000Z,64.88
2022-07-25T06:17:32.524Z,65.02
2022-07-25T06:19:59.403Z,64.79
2022-07-25T06:22:26.010Z,64.47
2022-07-25T06:24:52.525Z,64.24
2022-07-25T06:27:21.600Z,64.05
2022-07-25T06:29:49.704Z,64.07
2022-07-25T06:32:16.274Z,63.71
2022-07-25T06:34:42.964Z,63.13
2022-07-25T06:37:09.547Z,62.57
2022-07-25T06:39:36.244Z,62.34
2022-07-25T06:42:04.072Z,61.75
2022-07-25T06:44:35.066Z,61.50
2022-07-25T06:47:03.039Z,60.83
2022-07-25T06:49:29.680Z,60.47
2022-07-25T06:51:56.196Z,60.35
2022-07-25T06:54:23.001Z,59.63
2022-07-25T06:56:49.607Z,59.08
2022-07-25T06:59:16.217Z,58.67
2022-07-25T07:01:42.723Z,58.29
2022-07-25T07:04:09.570Z,58.10
2022-07-25T07:06:37.576Z,57.84
2022-07-25T07:09:04.208Z,57.51
2022-07-25T07:11:30.795Z,57.14
2022-07-25T07:13:57.338Z,56.83
2022-07-25T07:16:23.957Z,56.84
2022-07-25T07:18:50.516Z,56.42
2022-07-25T07:21:21.344Z,56.45
2022-07-25T07:23:49.259Z,56.55
2022-07-25T07:26:20.071Z,56.14
2022-07-25T07:28:46.623Z,55.84
2022-07-25T07:31:16.766Z,55.81
2022-07-25T07:33:44.144Z,56.20
2022-07-25T07:36:10.854Z,55.29
2022-07-25T07:38:37.473Z,54.76
2022-07-25T07:41:04.058Z,54.22
2022-07-25T07:43:31.796Z,53.53
2022-07-25T07:46:00.735Z,52.93
2022-07-25T07:48:32.372Z,52.56
2022-07-25T07:51:01.381Z,51.87
2022-07-25T07:53:47.339Z,52.10
2022-07-25T07:56:15.712Z,52.29
2022-07-25T07:58:42.707Z,51.60
2022-07-25T08:01:09.310Z,50.98
2022-07-25T08:03:36.081Z,50.75
2022-07-25T08:06:03.596Z,51.21
2022-07-25T08:08:31.612Z,50.54
2022-07-25T08:10:59.779Z,50.53
2022-07-25T08:13:31.720Z,50.16
2022-07-25T08:16:03.323Z,50.41
2022-07-25T08:18:32.742Z,50.36
2022-07-25T08:21:04.051Z,50.03
2022-07-25T08:23:31.881Z,50.20
2022-07-25T08:25:59.341Z,50.01
2022-07-25T08:28:25.946Z,49.79
2022-07-25T08:30:52.769Z,49.73
2022-07-25T08:33:19.477Z,49.86
2022-07-25T08:35:53.458Z,49.95
2022-07-25T08:38:23.902Z,49.71
2022-07-25T08:40:51.068Z,49.63
2022-07-25T08:43:18.960Z,49.41
2022-07-25T08:45:49.219Z,48.50
2022-07-25T08:48:26.378Z,47.88
2022-07-25T08:50:56.944Z,47.94
2022-07-25T08:53:34.075Z,47.70
2022-07-25T08:56:09.996Z,47.11
2022-07-25T08:58:40.215Z,46.27
2022-07-25T09:01:07.919Z,45.54
2022-07-25T09:03:36.134Z,44.60
2022-07-25T09:06:15.341Z,44.58
2022-07-25T09:09:00.629Z,44.41
2022-07-25T09:11:33.822Z,44.53
2022-07-25T09:14:14.861Z,43.71
2022-07-25T09:16:44.986Z,43.72
2022-07-25T09:19:23.739Z,42.56
2022-07-25T09:22:07.421Z,42.48
2022-07-25T09:24:37.119Z,43.04
2022-07-25T09:27:12.349Z,42.53
2022-07-25T09:29:42.457Z,42.77
2022-07-25T09:32:21.992Z,42.42
2022-07-25T09:34:50.946Z,42.32
2022-07-25T09:37:25.423Z,42.34
2022-07-25T09:39:52.899Z,42.27
2022-07-25T09:42:32.575Z,41.44
2022-07-25T09:45:12.839Z,41.86
2022-07-25T09:47:58.294Z,40.99
2022-07-25T09:50:28.457Z,41.20
2022-07-25T09:52:58.160Z,40.94
2022-07-25T09:55:25.076Z,40.92
2022-07-25T09:57:52.632Z,40.99
2022-07-25T10:00:24.545Z,40.50
2022-07-25T10:03:26.386Z,40.45
2022-07-25T10:06:08.453Z,40.72
2022-07-25T10:08:40.181Z,40.74
2022-07-25T10:11:22.619Z,40.00
2022-07-25T10:13:50.210Z,40.86
2022-07-25T10:16:23.993Z,40.65
2022-07-25T10:18:57.282Z,40.55
2022-07-25T10:21:28.227Z,40.85
2022-07-25T10:24:10.859Z,39.87
2022-07-25T10:26:50.891Z,40.31
2022-07-25T10:29:17.737Z,39.41
2022-07-25T10:31:51.577Z,38.64
2022-07-25T10:34:33.093Z,38.32
2022-07-25T10:37:16.018Z,37.25
2022-07-25T10:39:48.643Z,37.56
2022-07-25T10:42:21.054Z,37.64
2022-07-25T10:44:57.421Z,37.23
2022-07-25T10:47:27.547Z,37.37
2022-07-25T10:53:00.526Z,36.53
2022-07-25T10:55:29.504Z,36.99
2022-07-25T10:58:19.479Z,36.44
2022-07-25T11:00:46.124Z,36.61
2022-07-25T11:03:17.840Z,36.71
2022-07-25T11:05:47.320Z,36.30
2022-07-25T11:08:22.596Z,36.82
2022-07-25T11:10:53.253Z,37.31
2022-07-25T11:13:20.118Z,37.60
2022-07-25T11:15:47.621Z,37.57
2022-07-25T11:18:14.181Z,37.97
2022-07-25T11:20:41.040Z,38.08
2022-07-25T11:23:07.604Z,38.19
2022-07-25T11:25:34.165Z,38.49
2022-07-25T11:28:03.078Z,39.07
2022-07-25T11:30:29.758Z,39.88
2022-07-25T11:33:01.477Z,42.48
2022-07-25T11:35:34.349Z,43.70
2022-07-25T11:38:03.294Z,44.70
2022-07-25T11:40:31.419Z,45.40
2022-07-25T11:42:59.557Z,45.62
2022-07-25T11:45:33.590Z,45.92
2022-07-25T11:48:14.526Z,45.63
2022-07-25T11:50:44.603Z,46.07
2022-07-25T11:53:16.105Z,45.94
2022-07-25T11:55:43.987Z,46.00
2022-07-25T11:58:13.415Z,44.19
2022-07-25T12:00:46.530Z,44.71
2022-07-25T12:03:20.948Z,45.45
2022-07-25T12:05:49.632Z,46.15
2022-07-25T12:08:25.001Z,45.77
2022-07-25T12:10:51.845Z,45.40
2022-07-25T12:13:25.590Z,45.77
2022-07-25T12:15:52.510Z,46.64
2022-07-25T12:18:19.265Z,46.72
2022-07-25T12:20:45.830Z,45.31
2022-07-25T12:23:14.172Z,44.56
2022-07-25T12:25:44.434Z,44.33
2022-07-25T12:28:11.973Z,44.34
2022-07-25T12:30:41.106Z,44.13
2022-07-25T12:33:08.830Z,44.01
2022-07-25T12:35:37.416Z,43.52
2022-07-25T12:38:05.070Z,43.19
2022-07-25T12:40:32.407Z,43.84
2022-07-25T12:42:59.393Z,43.38
2022-07-25T12:45:26.302Z,43.75
2022-07-25T12:47:52.959Z,43.53
2022-07-25T12:50:19.620Z,43.90
2022-07-25T12:52:47.488Z,43.80
2022-07-25T12:55:19.761Z,44.71
2022-07-25T12:57:47.342Z,45.05
2022-07-25T13:00:18.342Z,45.58
2022-07-25T13:02:44.997Z,44.89
2022-07-25T13:05:11.915Z,44.98
2022-07-25T13:07:38.857Z,44.27
2022-07-25T13:10:07.083Z,44.52
2022-07-25T13:12:33.842Z,43.84
2022-07-25T13:15:00.453Z,43.13
2022-07-25T13:17:28.069Z,41.80
2022-07-25T13:19:56.452Z,42.10
2022-07-25T13:22:25.258Z,42.26
2022-07-25T13:24:52.890Z,41.29
2022-07-25T13:27:21.831Z,41.64
2022-07-25T13:29:54.120Z,41.22
2022-07-25T13:32:22.268Z,41.74
2022-07-25T13:34:48.935Z,41.90
2022-07-25T13:37:15.575Z,41.37
2022-07-25T13:39:42.345Z,40.70
2022-07-25T13:42:10.049Z,39.98
2022-07-25T13:44:36.669Z,39.78
2022-07-25T13:47:03.860Z,40.11
2022-07-25T13:49:32.027Z,40.72
2022-07-25T13:51:58.627Z,40.72
2022-07-25T13:54:25.170Z,41.30
2022-07-25T13:56:51.814Z,41.46
2022-07-25T13:59:21.414Z,41.26
2022-07-25T14:01:49.527Z,41.75
2022-07-25T14:04:17.040Z,41.91
2022-07-25T14:06:43.946Z,41.92
2022-07-25T14:09:10.897Z,41.95
2022-07-25T14:11:37.671Z,41.58
2022-07-25T14:14:04.201Z,41.34
2022-07-25T14:16:31.008Z,41.91
2022-07-25T14:18:57.643Z,42.11
2022-07-25T14:21:24.210Z,42.24
2022-07-25T14:23:52.415Z,41.89
2022-07-25T14:26:19.249Z,41.53
2022-07-25T14:28:45.830Z,41.26
2022-07-25T14:31:12.520Z,40.95
2022-07-25T14:33:40.046Z,40.41
2022-07-25T14:36:09.659Z,40.67
2022-07-25T14:38:38.768Z,40.92
2022-07-25T14:41:12.570Z,40.22
2022-07-25T14:43:41.207Z,40.24
2022-07-25T14:46:08.901Z,40.26
2022-07-25T14:48:37.848Z,40.07
2022-07-25T14:51:05.772Z,39.88
2022-07-25T14:53:33.947Z,40.10
2022-07-25T14:56:03.079Z,40.38
2022-07-25T14:58:29.746Z,40.55
2022-07-25T15:00:56.333Z,40.36
2022-07-25T15:03:23.156Z,40.87
2022-07-25T15:05:49.696Z,40.98
2022-07-25T15:08:16.486Z,41.00
2022-07-25T15:10:43.255Z,40.88
2022-07-25T15:15:57.565Z,40.83
2022-07-25T15:18:24.246Z,41.21
2022-07-25T15:20:51.821Z,41.43
2022-07-25T15:23:18.562Z,41.30
2022-07-25T15:26:04.083Z,41.63
2022-07-25T15:28:37.906Z,41.78
2022-07-25T15:31:06.090Z,42.19
2022-07-25T15:33:33.374Z,42.07
2022-07-25T15:36:00.458Z,41.90
2022-07-25T15:38:28.894Z,41.84
2022-07-25T15:40:55.424Z,42.00
2022-07-25T15:43:21.973Z,42.05
2022-07-25T15:45:48.551Z,42.00
2022-07-25T15:48:17.384Z,42.06
2022-07-25T15:50:48.329Z,42.20
2022-07-25T15:53:15.624Z,42.31
2022-07-25T15:55:43.111Z,42.24
2022-07-25T15:58:11.519Z,41.92
2022-07-25T16:00:40.010Z,41.86
2022-07-25T16:03:07.782Z,41.39
2022-07-25T16:05:35.288Z,41.17
2022-07-25T16:08:02.928Z,41.15
2022-07-25T16:10:33.323Z,41.64
2022-07-25T16:13:01.004Z,41.62
2022-07-25T16:15:28.303Z,41.64
2022-07-25T16:18:00.150Z,41.60
2022-07-25T16:20:31.179Z,41.27
2022-07-25T16:22:59.004Z,41.65
2022-07-25T16:25:29.178Z,41.52
2022-07-25T16:27:58.387Z,41.49
2022-07-25T16:30:25.778Z,41.21
2022-07-25T16:32:52.465Z,41.50
2022-07-25T16:35:19.466Z,41.11
2022-07-25T16:37:46.169Z,41.36
2022-07-25T16:40:14.272Z,41.42
2022-07-25T16:42:40.907Z,41.56
2022-07-25T16:45:08.436Z,41.55
2022-07-25T16:47:35.188Z,41.61
2022-07-25T16:50:01.870Z,42.09
2022-07-25T16:52:28.442Z,42.58
2022-07-25T16:54:54.986Z,42.42
2022-07-25T16:57:23.759Z,42.45
2022-07-25T16:59:53.163Z,42.51
2022-07-25T17:02:20.022Z,42.73
2022-07-25T17:04:46.731Z,43.01
2022-07-25T17:07:13.433Z,43.58
2022-07-25T17:09:40.756Z,43.67
2022-07-25T17:12:07.556Z,44.13
2022-07-25T17:14:34.565Z,44.29
2022-07-25T17:17:01.128Z,44.40
2022-07-25T17:19:27.716Z,44.28
2022-07-25T17:21:54.261Z,44.28
2022-07-25T17:24:20.778Z,44.38
2022-07-25T17:26:47.378Z,44.41
2022-07-25T17:29:13.923Z,44.74
2022-07-25T17:31:40.620Z,44.45
2022-07-25T17:34:07.229Z,44.29
2022-07-25T17:36:34.129Z,44.22
2022-07-25T17:39:01.143Z,44.30
2022-07-25T17:41:27.674Z,43.86
2022-07-25T17:43:54.279Z,44.05
2022-07-25T17:46:20.924Z,43.52
2022-07-25T17:48:47.600Z,43.25
2022-07-25T17:51:14.190Z,43.09
2022-07-25T17:53:40.755Z,42.95
2022-07-25T17:56:08.637Z,42.70
2022-07-25T17:58:36.929Z,42.70
2022-07-25T18:01:08.369Z,42.34
2022-07-25T18:03:37.000Z,42.13
2022-07-25T18:06:04.942Z,42.44
2022-07-25T18:08:35.060Z,42.81
2022-07-25T18:11:03.434Z,42.97
2022-07-25T18:13:30.064Z,43.30
2022-07-25T18:15:56.867Z,43.35
2022-07-25T18:18:23.556Z,43.76
2022-07-25T18:20:50.101Z,43.94
2022-07-25T18:23:16.787Z,44.12
2022-07-25T18:25:46.632Z,44.14
2022-07-25T18:28:13.238Z,44.12
2022-07-25T18:30:39.899Z,44.19
2022-07-25T18:33:07.271Z,44.45
2022-07-25T18:35:33.891Z,44.67
2022-07-25T18:38:01.972Z,44.57
2022-07-25T18:40:29.107Z,44.39
2022-07-25T18:42:56.186Z,44.39
2022-07-25T18:45:23.455Z,44.70
2022-07-25T18:47:50.576Z,44.83
2022-07-25T18:50:19.790Z,44.18
2022-07-25T18:52:46.493Z,44.38
2022-07-25T18:55:13.043Z,44.45
2022-07-25T18:57:39.613Z,44.39
2022-07-25T19:00:09.513Z,44.59
2022-07-25T19:02:36.496Z,44.60
2022-07-25T19:05:03.478Z,44.60
2022-07-25T19:07:31.152Z,44.31
2022-07-25T19:09:57.770Z,44.39
2022-07-25T19:12:26.468Z,44.33
2022-07-25T19:14:54.789Z,44.66
2022-07-25T19:17:21.415Z,45.00
2022-07-25T19:19:48.069Z,44.89
2022-07-25T19:22:14.663Z,44.62
2022-07-25T19:24:41.177Z,44.51
2022-07-25T19:27:09.278Z,44.62
2022-07-25T19:29:37.471Z,44.88
2022-07-25T19:32:04.749Z,45.36
2022-07-25T19:34:31.335Z,45.68
2022-07-25T19:36:58.083Z,45.60
2022-07-25T19:39:24.752Z,45.37
2022-07-25T19:41:54.174Z,45.65
2022-07-25T19:44:20.911Z,46.23
2022-07-25T19:46:48.919Z,46.46
2022-07-25T19:49:15.810Z,46.59
2022-07-25T19:51:42.432Z,46.71
2022-07-25T19:54:09.721Z,47.17
2022-07-25T19:56:36.693Z,47.25
2022-07-25T19:59:03.828Z,47.53
2022-07-25T20:01:34.101Z,47.58
2022-07-25T20:04:01.890Z,47.57
2022-07-25T20:06:28.707Z,47.53
2022-07-25T20:08:55.242Z,47.42
2022-07-25T20:11:21.846Z,47.67
2022-07-25T20:13:48.385Z,48.00
2022-07-25T20:16:14.990Z,48.16
2022-07-25T20:18:41.589Z,48.15
2022-07-25T20:21:08.209Z,48.18
2022-07-25T20:23:34.806Z,48.41
2022-07-25T20:26:02.258Z,48.36
2022-07-25T20:28:29.028Z,48.45
2022-07-25T20:30:57.394Z,48.98
2022-07-25T20:33:26.890Z,49.51
2022-07-25T20:35:55.500Z,49.83
2022-07-25T20:38:22.798Z,50.13
2022-07-25T20:40:51.019Z,50.42
2022-07-25T20:43:18.585Z,50.29
2022-07-25T20:45:45.198Z,50.37
2022-07-25T20:48:14.580Z,50.58
2022-07-25T20:50:41.254Z,50.79
2022-07-25T20:53:08.613Z,50.68
2022-07-25T20:55:36.658Z,51.01
2022-07-25T20:58:04.599Z,51.28
2022-07-25T21:00:31.399Z,51.00
2022-07-25T21:02:59.821Z,51.24
2022-07-25T21:05:27.359Z,51.48
2022-07-25T21:07:54.685Z,51.72
2022-07-25T21:10:21.723Z,51.92
2022-07-25T21:12:48.790Z,52.36
2022-07-25T21:15:15.781Z,52.65
2022-07-25T21:17:42.364Z,53.03
2022-07-25T21:20:15.064Z,52.88
2022-07-25T21:22:43.295Z,53.04
2022-07-25T21:25:11.287Z,53.08
2022-07-25T21:27:39.675Z,53.47
2022-07-25T21:30:09.659Z,53.48
2022-07-25T21:32:36.309Z,53.29
2022-07-25T21:35:04.837Z,53.48
2022-07-25T21:37:31.369Z,53.73
2022-07-25T21:39:58.011Z,54.16
2022-07-25T21:42:24.571Z,54.64
2022-07-25T21:44:51.207Z,54.82
2022-07-25T21:47:17.900Z,55.19
2022-07-25T21:50:03.077Z,55.22
2022-07-25T21:52:34.775Z,55.05
2022-07-25T21:55:04.006Z,54.90
2022-07-25T21:57:31.624Z,54.75
2022-07-25T21:59:58.311Z,54.95
2022-07-25T22:02:25.394Z,55.04
2022-07-25T22:04:52.316Z,55.09
2022-07-25T22:07:19.023Z,55.43
2022-07-25T22:09:45.744Z,55.66
2022-07-25T22:12:12.405Z,55.41
2022-07-25T22:14:39.056Z,55.92
2022-07-25T22:17:05.691Z,56.88
2022-07-25T22:19:32.794Z,57.36
2022-07-25T22:21:59.521Z,57.36
2022-07-25T22:24:26.089Z,56.98
2022-07-25T22:26:52.788Z,56.72
2022-07-25T22:29:19.303Z,56.64
2022-07-25T22:31:45.914Z,56.75
2022-07-25T22:34:12.543Z,56.81
2022-07-25T22:36:39.194Z,56.51
2022-07-25T22:39:06.240Z,56.34
2022-07-25T22:41:35.618Z,56.52
2022-07-25T22:44:03.566Z,56.47
2022-07-25T22:46:31.925Z,56.36
2022-07-25T22:48:59.442Z,56.33
2022-07-25T22:51:27.679Z,56.18
2022-07-25T22:53:55.655Z,56.14
2022-07-25T22:56:22.559Z,56.12
2022-07-25T22:58:49.494Z,56.13
2022-07-25T23:01:18.576Z,56.23
2022-07-25T23:03:46.346Z,56.36
2022-07-25T23:06:13.036Z,56.39
2022-07-25T23:08:39.558Z,56.36
2022-07-25T23:11:06.415Z,56.55
2022-07-25T23:13:34.551Z,56.83
2022-07-25T23:16:03.256Z,56.99
2022-07-25T23:18:31.191Z,56.93
2022-07-25T23:20:57.854Z,56.64
2022-07-25T23:23:24.575Z,56.54
2022-07-25T23:25:51.562Z,56.72
2022-07-25T23:28:18.156Z,56.89
2022-07-25T23:30:44.719Z,57.09
2022-07-25T23:33:11.247Z,57.04
2022-07-25T23:35:37.797Z,57.01
2022-07-25T23:38:04.835Z,57.09
2022-07-25T23:40:31.450Z,56.98
2022-07-25T23:42:58.035Z,57.11
2022-07-25T23:45:24.953Z,56.90
2022-07-25T23:47:54.703Z,57.08
2022-07-25T23:50:22.101Z,56.95
2022-07-25T23:52:48.646Z,56.96
2022-07-25T23:55:15.267Z,56.72
2022-07-25T23:57:42.058Z,56.73
